createdAt,value
2023-04-18T00:01:18.709Z,4.93
2023-04-18T00:03:48.406Z,4.96
2023-04-18T00:06:16.782Z,4.98
2023-04-18T00:08:44.844Z,4.96
2023-04-18T00:11:12.975Z,5.00
2023-04-18T00:13:41.592Z,5.00
2023-04-18T00:16:10.016Z,4.98
2023-04-18T00:18:39.945Z,4.97
2023-04-18T00:21:09.702Z,4.98
2023-04-18T00:23:38.619Z,4.97
2023-04-18T00:26:06.821Z,4.97
2023-04-18T00:28:34.887Z,4.98
2023-04-18T00:31:03.042Z,4.99
2023-04-18T00:33:33.381Z,4.99
2023-04-18T00:36:01.439Z,4.97
2023-04-18T00:38:30.985Z,4.95
2023-04-18T00:40:59.084Z,4.95
2023-04-18T00:43:27.144Z,4.95
2023-04-18T00:45:57.076Z,4.93
2023-04-18T00:48:26.064Z,4.96
2023-04-18T00:50:55.356Z,4.96
2023-04-18T00:53:23.521Z,4.98
2023-04-18T00:55:53.018Z,4.98
2023-04-18T00:58:21.460Z,4.95
2023-04-18T01:00:49.912Z,4.96
2023-04-18T01:03:18.423Z,5.00
2023-04-18T01:05:47.646Z,5.01
2023-04-18T01:08:15.802Z,4.99
2023-04-18T01:10:43.936Z,4.97
2023-04-18T01:13:14.413Z,4.98
2023-04-18T01:15:43.482Z,4.99
2023-04-18T01:18:11.881Z,4.96
2023-04-18T01:20:42.515Z,4.96
2023-04-18T01:23:11.422Z,4.98
2023-04-18T01:25:41.046Z,4.97
2023-04-18T01:28:09.600Z,4.95
2023-04-18T01:30:37.676Z,4.99
2023-04-18T01:33:06.039Z,4.99
2023-04-18T01:35:34.196Z,5.00
2023-04-18T01:38:02.364Z,4.98
2023-04-18T01:40:31.397Z,4.99
2023-04-18T01:43:02.579Z,4.98
2023-04-18T01:45:30.658Z,4.99
2023-04-18T01:47:58.754Z,5.00
2023-04-18T01:50:26.933Z,5.01
2023-04-18T01:52:55.397Z,5.04
2023-04-18T01:55:23.477Z,5.03
2023-04-18T01:57:51.886Z,5.02
2023-04-18T02:00:23.368Z,5.07
2023-04-18T02:02:52.000Z,5.06
2023-04-18T02:05:22.334Z,5.05
2023-04-18T02:07:50.842Z,5.07
2023-04-18T02:10:19.022Z,5.05
2023-04-18T02:12:47.159Z,5.05
2023-04-18T02:15:15.749Z,5.08
2023-04-18T02:17:45.688Z,5.10
2023-04-18T02:20:14.734Z,5.08
2023-04-18T02:22:42.979Z,5.09
2023-04-18T02:25:11.704Z,5.09
2023-04-18T02:27:40.402Z,5.11
2023-04-18T02:30:09.499Z,5.10
2023-04-18T02:32:37.741Z,5.09
2023-04-18T02:35:09.840Z,5.13
2023-04-18T02:37:38.016Z,5.12
2023-04-18T02:40:07.354Z,5.12
2023-04-18T02:42:35.497Z,5.12
2023-04-18T02:45:03.814Z,5.08
2023-04-18T02:47:40.529Z,5.10
2023-04-18T02:50:20.096Z,5.10
2023-04-18T02:52:48.397Z,5.07
2023-04-18T02:55:18.893Z,5.14
2023-04-18T02:57:47.647Z,5.16
2023-04-18T03:00:33.917Z,5.16
2023-04-18T03:03:20.731Z,5.19
2023-04-18T03:06:01.457Z,5.19
2023-04-18T03:08:31.340Z,5.20
2023-04-18T03:10:59.727Z,5.21
2023-04-18T03:13:30.635Z,5.24
2023-04-18T03:15:59.535Z,5.21
2023-04-18T03:18:29.061Z,5.21
2023-04-18T03:21:01.371Z,5.22
2023-04-18T03:23:31.339Z,5.19
2023-04-18T03:26:00.974Z,5.14
2023-04-18T03:28:32.681Z,5.16
2023-04-18T03:31:01.589Z,5.19
2023-04-18T03:33:30.317Z,5.19
2023-04-18T03:36:09.735Z,5.16
2023-04-18T03:38:40.667Z,5.18
2023-04-18T03:41:09.813Z,5.17
2023-04-18T03:43:40.166Z,5.16
2023-04-18T03:46:08.323Z,5.16
2023-04-18T03:48:37.701Z,5.17
2023-04-18T03:51:11.785Z,5.16
2023-04-18T03:53:40.553Z,5.16
2023-04-18T03:56:09.145Z,5.17
2023-04-18T03:58:58.749Z,5.16
2023-04-18T04:01:26.913Z,5.16
2023-04-18T04:03:55.649Z,5.17
2023-04-18T04:06:27.420Z,5.19
2023-04-18T04:08:59.120Z,5.20
2023-04-18T04:11:29.581Z,5.20
2023-04-18T04:13:58.136Z,5.20
2023-04-18T04:16:32.321Z,5.20
2023-04-18T04:19:01.405Z,5.20
2023-04-18T04:21:38.359Z,5.23
2023-04-18T04:24:09.564Z,5.25
2023-04-18T04:26:42.789Z,5.23
2023-04-18T04:29:16.916Z,5.24
2023-04-18T04:31:47.701Z,5.29
2023-04-18T04:34:22.758Z,5.30
2023-04-18T04:36:53.994Z,5.32
2023-04-18T04:39:24.705Z,5.36
2023-04-18T04:42:05.481Z,5.37
2023-04-18T04:44:44.522Z,5.36
2023-04-18T04:47:12.778Z,5.39
2023-04-18T04:49:41.195Z,5.37
2023-04-18T04:52:11.272Z,5.38
2023-04-18T04:54:39.516Z,5.39
2023-04-18T04:57:10.071Z,5.33
2023-04-18T04:59:38.224Z,5.35
2023-04-18T05:02:32.492Z,5.39
2023-04-18T05:05:01.041Z,5.39
2023-04-18T05:07:30.537Z,5.39
2023-04-18T05:09:58.706Z,5.38
2023-04-18T05:12:26.916Z,5.41
2023-04-18T05:14:55.041Z,5.40
2023-04-18T05:17:23.182Z,5.40
2023-04-18T05:19:51.921Z,5.41
2023-04-18T05:22:20.063Z,5.42
2023-04-18T05:24:49.631Z,5.43
2023-04-18T05:27:18.206Z,5.44
2023-04-18T05:29:47.644Z,5.46
2023-04-18T05:32:16.346Z,5.48
2023-04-18T05:34:44.470Z,5.47
2023-04-18T05:37:12.578Z,5.50
2023-04-18T05:39:40.803Z,5.56
2023-04-18T05:42:10.442Z,5.57
2023-04-18T05:44:38.676Z,5.60
2023-04-18T05:47:07.207Z,5.62
2023-04-18T05:49:35.386Z,5.66
2023-04-18T05:52:03.530Z,5.68
2023-04-18T05:54:31.598Z,5.71
2023-04-18T05:56:59.763Z,5.74
2023-04-18T05:59:29.904Z,5.78
2023-04-18T06:01:58.319Z,5.80
2023-04-18T06:04:26.599Z,5.83
2023-04-18T06:06:54.791Z,5.83
2023-04-18T06:09:22.849Z,5.84
2023-04-18T06:11:51.402Z,5.83
2023-04-18T06:14:19.559Z,5.86
2023-04-18T06:16:49.168Z,5.88
2023-04-18T06:19:17.328Z,5.87
2023-04-18T06:21:45.519Z,5.89
2023-04-18T06:24:13.875Z,5.90
2023-04-18T06:26:42.499Z,5.93
2023-04-18T06:29:10.638Z,5.91
2023-04-18T06:31:38.761Z,5.92
2023-04-18T06:34:08.881Z,5.94
2023-04-18T06:36:37.004Z,5.96
2023-04-18T06:39:05.159Z,5.97
2023-04-18T06:41:33.748Z,5.94
2023-04-18T06:44:03.348Z,5.93
2023-04-18T06:46:32.222Z,5.92
2023-04-18T06:49:00.467Z,5.95
2023-04-18T06:51:30.102Z,5.92
2023-04-18T06:53:58.627Z,5.94
2023-04-18T06:56:26.946Z,5.97
2023-04-18T06:58:55.038Z,5.96
2023-04-18T07:01:23.223Z,5.95
2023-04-18T07:03:51.439Z,5.99
2023-04-18T07:06:19.636Z,5.97
2023-04-18T07:08:49.491Z,6.03
2023-04-18T07:11:18.582Z,6.02
2023-04-18T07:13:47.438Z,6.01
2023-04-18T07:16:15.762Z,6.01
2023-04-18T07:18:44.005Z,5.99
2023-04-18T07:21:12.525Z,5.97
2023-04-18T07:23:40.852Z,5.98
2023-04-18T07:26:11.486Z,6.00
2023-04-18T07:28:39.584Z,6.02
2023-04-18T07:31:11.294Z,6.00
2023-04-18T07:33:39.603Z,5.96
2023-04-18T07:36:08.794Z,5.92
2023-04-18T07:38:36.898Z,5.87
2023-04-18T07:41:05.126Z,5.93
2023-04-18T07:43:34.648Z,5.95
2023-04-18T07:46:02.825Z,5.97
2023-04-18T07:48:31.337Z,5.97
2023-04-18T07:50:59.528Z,5.98
2023-04-18T07:53:27.717Z,6.00
2023-04-18T07:55:56.262Z,5.97
2023-04-18T07:58:24.479Z,5.93
2023-04-18T08:00:54.505Z,5.96
2023-04-18T08:03:22.809Z,5.94
2023-04-18T08:05:51.997Z,6.00
2023-04-18T08:08:20.113Z,6.05
2023-04-18T08:10:48.246Z,5.99
2023-04-18T08:13:18.008Z,5.96
2023-04-18T08:15:47.333Z,6.00
2023-04-18T08:18:16.896Z,5.92
2023-04-18T08:20:45.069Z,5.88
2023-04-18T08:23:13.978Z,5.90
2023-04-18T08:25:42.138Z,5.87
2023-04-18T08:28:10.933Z,5.86
2023-04-18T08:30:39.081Z,5.87
2023-04-18T08:33:07.317Z,5.87
2023-04-18T08:35:36.988Z,5.80
2023-04-18T08:38:05.107Z,5.86
2023-04-18T08:40:33.371Z,5.84
2023-04-18T08:43:02.203Z,5.86
2023-04-18T08:45:31.354Z,5.83
2023-04-18T08:48:01.641Z,5.87
2023-04-18T08:50:30.140Z,5.79
2023-04-18T08:53:00.915Z,5.84
2023-04-18T08:55:29.617Z,5.89
2023-04-18T08:57:57.967Z,5.86
2023-04-18T09:00:27.221Z,5.82
2023-04-18T09:02:57.157Z,5.87
2023-04-18T09:05:26.996Z,5.92
2023-04-18T09:07:56.201Z,6.01
2023-04-18T09:10:33.330Z,6.04
2023-04-18T09:13:03.292Z,6.08
2023-04-18T09:15:32.490Z,6.11
2023-04-18T09:18:02.906Z,6.15
2023-04-18T09:20:36.021Z,6.20
2023-04-18T09:23:04.937Z,6.32
2023-04-18T09:25:36.120Z,6.34
2023-04-18T09:28:04.692Z,6.37
2023-04-18T09:30:37.826Z,6.37
2023-04-18T09:33:07.649Z,6.11
2023-04-18T09:35:36.033Z,6.12
2023-04-18T09:38:04.551Z,6.13
2023-04-18T09:40:34.339Z,6.10
2023-04-18T09:43:02.504Z,6.33
2023-04-18T09:45:30.666Z,6.41
2023-04-18T09:47:58.831Z,6.38
2023-04-18T09:50:27.434Z,6.46
2023-04-18T09:52:55.641Z,6.17
2023-04-18T09:55:23.825Z,6.20
2023-04-18T09:57:53.360Z,6.21
2023-04-18T10:00:24.182Z,6.27
2023-04-18T10:02:55.374Z,6.34
2023-04-18T10:05:26.540Z,6.39
2023-04-18T10:07:54.976Z,6.42
2023-04-18T10:10:23.281Z,6.44
2023-04-18T10:12:53.928Z,6.44
2023-04-18T10:15:22.901Z,6.25
2023-04-18T10:20:28.301Z,6.23
2023-04-18T10:22:56.804Z,6.22
2023-04-18T10:25:50.600Z,6.22
2023-04-18T10:28:21.471Z,6.25
2023-04-18T10:30:52.248Z,6.22
2023-04-18T10:33:33.489Z,6.23
2023-04-18T10:36:14.903Z,6.21
2023-04-18T10:38:47.756Z,6.16
2023-04-18T10:41:17.338Z,6.24
2023-04-18T10:44:19.836Z,6.32
2023-04-18T10:47:33.968Z,6.28
2023-04-18T10:50:06.302Z,6.29
2023-04-18T10:52:37.664Z,6.31
2023-04-18T10:55:14.766Z,6.27
2023-04-18T10:57:43.500Z,6.24
2023-04-18T11:00:15.237Z,6.27
2023-04-18T11:02:50.226Z,6.18
2023-04-18T11:05:22.936Z,6.23
2023-04-18T11:07:51.221Z,6.26
2023-04-18T11:10:20.363Z,6.23
2023-04-18T11:12:48.953Z,6.18
2023-04-18T11:15:21.615Z,6.02
2023-04-18T11:17:57.117Z,6.01
2023-04-18T11:20:25.677Z,5.98
2023-04-18T11:22:54.690Z,6.01
2023-04-18T11:25:26.106Z,6.08
2023-04-18T11:27:55.229Z,6.10
2023-04-18T11:30:24.782Z,5.96
2023-04-18T11:32:54.244Z,6.21
2023-04-18T11:35:22.462Z,5.98
2023-04-18T11:37:51.316Z,5.92
2023-04-18T11:40:19.834Z,5.95
2023-04-18T11:42:47.945Z,5.82
2023-04-18T11:45:16.313Z,5.81
2023-04-18T11:47:48.114Z,5.80
2023-04-18T11:50:16.419Z,5.81
2023-04-18T11:52:44.697Z,5.85
2023-04-18T11:55:14.609Z,5.95
2023-04-18T11:57:43.023Z,6.05
2023-04-18T12:00:12.947Z,6.03
2023-04-18T12:02:42.141Z,5.95
2023-04-18T12:05:12.452Z,6.00
2023-04-18T12:07:41.974Z,6.03
2023-04-18T12:10:10.939Z,6.02
2023-04-18T12:12:39.117Z,6.01
2023-04-18T12:15:09.424Z,6.02
2023-04-18T12:17:38.078Z,6.01
2023-04-18T12:20:08.042Z,6.03
2023-04-18T12:22:42.035Z,6.00
2023-04-18T12:25:20.325Z,6.05
2023-04-18T12:27:52.279Z,6.12
2023-04-18T12:30:22.057Z,6.01
2023-04-18T12:32:51.097Z,6.03
2023-04-18T12:35:20.095Z,6.05
2023-04-18T12:37:49.670Z,5.96
2023-04-18T12:40:19.012Z,6.04
2023-04-18T12:42:47.456Z,6.04
2023-04-18T12:45:16.171Z,6.05
2023-04-18T12:47:45.320Z,6.04
2023-04-18T12:50:19.083Z,5.99
2023-04-18T12:52:47.255Z,6.10
2023-04-18T12:55:16.825Z,6.11
2023-04-18T12:57:44.964Z,6.14
2023-04-18T13:00:14.216Z,6.17
2023-04-18T13:02:43.621Z,6.17
2023-04-18T13:05:13.231Z,6.16
2023-04-18T13:07:42.534Z,6.07
2023-04-18T13:10:11.700Z,6.08
2023-04-18T13:12:41.515Z,6.06
2023-04-18T13:15:10.577Z,6.03
2023-04-18T13:17:38.845Z,5.97
2023-04-18T13:20:09.098Z,5.91
2023-04-18T13:22:37.332Z,5.95
2023-04-18T13:25:05.820Z,5.99
2023-04-18T13:27:33.937Z,5.98
2023-04-18T13:30:03.892Z,5.95
2023-04-18T13:32:32.467Z,5.99
2023-04-18T13:35:00.661Z,6.00
2023-04-18T13:37:28.781Z,5.91
2023-04-18T13:39:57.416Z,5.88
2023-04-18T13:42:25.925Z,5.91
2023-04-18T13:44:54.464Z,5.91
2023-04-18T13:47:24.003Z,5.86
2023-04-18T13:49:52.251Z,5.88
2023-04-18T13:52:20.384Z,5.90
2023-04-18T13:54:49.331Z,5.88
2023-04-18T13:57:17.475Z,5.91
2023-04-18T13:59:45.609Z,5.92
2023-04-18T14:02:14.013Z,5.92
2023-04-18T14:04:43.906Z,5.90
2023-04-18T14:07:12.177Z,5.92
2023-04-18T14:09:40.683Z,5.91
2023-04-18T14:12:08.935Z,5.99
2023-04-18T14:14:37.116Z,5.96
2023-04-18T14:17:05.229Z,5.92
2023-04-18T14:19:34.806Z,5.95
2023-04-18T14:22:04.306Z,5.99
2023-04-18T14:24:32.393Z,5.99
2023-04-18T14:27:01.773Z,6.02
2023-04-18T14:29:29.900Z,6.01
2023-04-18T14:31:58.120Z,6.04
2023-04-18T14:34:26.288Z,6.06
2023-04-18T14:36:54.766Z,6.07
2023-04-18T14:39:24.769Z,6.07
2023-04-18T14:41:54.833Z,6.09
2023-04-18T14:44:22.938Z,6.16
2023-04-18T14:46:51.096Z,6.15
2023-04-18T14:49:19.719Z,6.18
2023-04-18T14:51:47.885Z,6.19
2023-04-18T14:54:16.009Z,6.19
2023-04-18T14:56:45.499Z,6.16
2023-04-18T14:59:16.476Z,6.16
2023-04-18T15:01:45.094Z,6.15
2023-04-18T15:04:13.546Z,6.18
2023-04-18T15:06:42.226Z,6.16
2023-04-18T15:09:10.333Z,6.16
2023-04-18T15:11:38.715Z,6.15
2023-04-18T15:14:08.217Z,6.14
2023-04-18T15:16:38.122Z,6.16
2023-04-18T15:19:06.649Z,6.19
2023-04-18T15:21:34.795Z,6.17
2023-04-18T15:24:03.278Z,6.18
2023-04-18T15:26:33.141Z,6.18
2023-04-18T15:29:02.606Z,6.19
2023-04-18T15:31:32.603Z,6.20
2023-04-18T15:34:00.854Z,6.21
2023-04-18T15:36:28.999Z,6.19
2023-04-18T15:38:57.112Z,6.16
2023-04-18T15:41:25.314Z,6.16
2023-04-18T15:43:54.000Z,6.17
2023-04-18T15:46:22.393Z,6.17
2023-04-18T15:48:52.198Z,6.17
2023-04-18T15:51:20.364Z,6.15
2023-04-18T15:53:48.482Z,6.19
2023-04-18T15:56:16.609Z,6.17
2023-04-18T15:58:45.189Z,6.19
2023-04-18T16:01:15.916Z,6.17
2023-04-18T16:03:44.508Z,6.20
2023-04-18T16:06:15.252Z,6.22
2023-04-18T16:08:43.377Z,6.24
2023-04-18T16:11:11.476Z,6.27
2023-04-18T16:13:39.618Z,6.29
2023-04-18T16:16:08.346Z,6.27
2023-04-18T16:18:36.505Z,6.26
2023-04-18T16:21:04.790Z,6.27
2023-04-18T16:23:34.304Z,6.28
2023-04-18T16:26:02.956Z,6.31
2023-04-18T16:28:31.044Z,6.29
2023-04-18T16:30:59.264Z,6.30
2023-04-18T16:33:27.557Z,6.29
2023-04-18T16:35:57.784Z,6.30
2023-04-18T16:38:27.371Z,6.30
2023-04-18T16:40:57.642Z,6.28
2023-04-18T16:43:26.984Z,6.29
2023-04-18T16:45:56.509Z,6.30
2023-04-18T16:48:24.759Z,6.32
2023-04-18T16:50:52.973Z,6.30
2023-04-18T16:53:22.282Z,6.31
2023-04-18T16:55:50.585Z,6.32
2023-04-18T16:58:20.289Z,6.34
2023-04-18T17:00:48.416Z,6.32
2023-04-18T17:03:16.629Z,6.33
2023-04-18T17:05:44.916Z,6.33
2023-04-18T17:08:13.000Z,6.33
2023-04-18T17:10:41.139Z,6.31
2023-04-18T17:13:09.370Z,6.34
2023-04-18T17:15:39.310Z,6.37
2023-04-18T17:18:07.473Z,6.36
2023-04-18T17:20:36.167Z,6.34
2023-04-18T17:23:04.289Z,6.54
2023-04-18T17:25:32.359Z,6.37
2023-04-18T17:28:02.241Z,6.31
2023-04-18T17:30:30.492Z,6.36
2023-04-18T17:33:00.422Z,6.34
2023-04-18T17:35:28.667Z,6.40
2023-04-18T17:37:56.881Z,6.40
2023-04-18T17:40:25.171Z,6.38
2023-04-18T17:42:53.291Z,6.37
2023-04-18T17:45:21.552Z,6.37
2023-04-18T17:47:50.950Z,6.38
2023-04-18T17:50:20.702Z,6.38
2023-04-18T17:52:48.959Z,6.38
2023-04-18T17:55:17.166Z,6.39
2023-04-18T17:57:45.339Z,6.37
2023-04-18T18:00:14.698Z,6.37
2023-04-18T18:02:43.403Z,6.38
2023-04-18T18:05:13.672Z,6.38
2023-04-18T18:07:47.467Z,6.38
2023-04-18T18:10:19.051Z,6.38
2023-04-18T18:12:47.204Z,6.40
2023-04-18T18:15:15.699Z,6.39
2023-04-18T18:17:43.863Z,6.40
2023-04-18T18:20:12.037Z,6.42
2023-04-18T18:22:40.153Z,6.40
2023-04-18T18:25:10.641Z,6.40
2023-04-18T18:27:38.814Z,6.39
2023-04-18T18:30:08.431Z,6.41
2023-04-18T18:32:36.576Z,6.42
2023-04-18T18:35:06.082Z,6.45
2023-04-18T18:37:34.231Z,6.44
2023-04-18T18:40:04.540Z,6.43
2023-04-18T18:42:34.441Z,6.45
2023-04-18T18:45:02.549Z,6.48
2023-04-18T18:47:31.465Z,6.49
2023-04-18T18:49:59.605Z,6.48
2023-04-18T18:52:29.803Z,6.51
2023-04-18T18:54:58.426Z,6.48
2023-04-18T18:57:26.653Z,6.49
2023-04-18T18:59:56.153Z,6.50
2023-04-18T19:02:24.577Z,6.49
2023-04-18T19:04:52.932Z,6.51
2023-04-18T19:07:21.112Z,6.53
2023-04-18T19:09:49.631Z,6.51
2023-04-18T19:12:17.896Z,6.55
2023-04-18T19:14:46.900Z,6.56
2023-04-18T19:17:17.695Z,6.56
2023-04-18T19:19:46.286Z,6.54
2023-04-18T19:22:14.415Z,6.56
2023-04-18T19:24:42.508Z,6.53
2023-04-18T19:27:10.579Z,6.54
2023-04-18T19:29:38.703Z,6.54
2023-04-18T19:32:07.523Z,6.53
2023-04-18T19:34:37.125Z,6.53
2023-04-18T19:37:05.544Z,6.55
2023-04-18T19:39:33.663Z,6.54
2023-04-18T19:42:03.934Z,6.54
2023-04-18T19:44:32.478Z,6.56
2023-04-18T19:47:00.594Z,6.63
2023-04-18T19:49:28.773Z,6.59
2023-04-18T19:51:59.673Z,6.61
2023-04-18T19:54:27.808Z,6.60
2023-04-18T19:56:56.562Z,6.61
2023-04-18T19:59:24.677Z,6.61
2023-04-18T20:01:52.848Z,6.60
2023-04-18T20:04:22.252Z,6.63
2023-04-18T20:06:50.539Z,6.62
2023-04-18T20:09:20.038Z,6.63
2023-04-18T20:11:48.619Z,6.66
2023-04-18T20:14:16.734Z,6.67
2023-04-18T20:16:46.212Z,6.68
2023-04-18T20:19:14.913Z,6.66
2023-04-18T20:21:43.305Z,6.67
2023-04-18T20:24:11.342Z,6.69
2023-04-18T20:26:40.853Z,6.68
2023-04-18T20:29:09.117Z,6.72
2023-04-18T20:31:42.178Z,6.69
2023-04-18T20:34:11.037Z,6.73
2023-04-18T20:36:41.655Z,6.73
2023-04-18T20:39:09.885Z,6.74
2023-04-18T20:41:38.034Z,6.76
2023-04-18T20:44:10.068Z,6.73
2023-04-18T20:46:38.257Z,6.74
2023-04-18T20:49:06.550Z,6.74
2023-04-18T20:51:35.794Z,6.76
2023-04-18T20:54:03.873Z,6.77
2023-04-18T20:56:32.108Z,6.76
2023-04-18T20:59:00.657Z,6.77
2023-04-18T21:01:30.265Z,6.78
2023-04-18T21:03:58.661Z,6.80
2023-04-18T21:06:28.429Z,6.81
2023-04-18T21:08:56.678Z,6.82
2023-04-18T21:11:24.806Z,6.82
2023-04-18T21:13:53.276Z,6.82
2023-04-18T21:16:21.443Z,6.83
2023-04-18T21:18:50.982Z,6.84
2023-04-18T21:21:19.156Z,6.83
2023-04-18T21:23:47.273Z,6.82
2023-04-18T21:26:15.861Z,6.83
2023-04-18T21:28:54.255Z,6.84
2023-04-18T21:31:22.376Z,6.84
2023-04-18T21:33:54.779Z,6.85
2023-04-18T21:36:22.986Z,6.86
2023-04-18T21:38:53.058Z,6.87
2023-04-18T21:41:21.729Z,6.87
2023-04-18T21:43:49.861Z,6.87
2023-04-18T21:46:18.274Z,6.88
2023-04-18T21:48:47.912Z,6.86
2023-04-18T21:51:17.930Z,6.86
2023-04-18T21:53:46.533Z,6.87
2023-04-18T21:56:15.041Z,6.87
2023-04-18T21:58:43.132Z,6.89
2023-04-18T22:01:11.372Z,6.90
2023-04-18T22:03:39.829Z,6.89
2023-04-18T22:06:08.155Z,6.91
2023-04-18T22:08:38.099Z,6.91
2023-04-18T22:11:06.499Z,6.90
2023-04-18T22:13:34.669Z,6.91
2023-04-18T22:16:03.743Z,6.91
2023-04-18T22:18:33.697Z,6.92
2023-04-18T22:21:02.429Z,6.91
2023-04-18T22:23:30.744Z,6.93
2023-04-18T22:26:00.322Z,6.92
2023-04-18T22:28:28.969Z,6.92
2023-04-18T22:30:57.200Z,6.93
2023-04-18T22:33:25.448Z,6.94
2023-04-18T22:35:54.247Z,6.94
2023-04-18T22:38:22.412Z,6.94
2023-04-18T22:40:50.515Z,6.97
2023-04-18T22:43:22.812Z,6.96
2023-04-18T22:45:51.286Z,6.96
2023-04-18T22:48:19.501Z,6.96
2023-04-18T22:50:49.768Z,6.96
2023-04-18T22:53:18.117Z,6.94
2023-04-18T22:55:46.365Z,6.95
2023-04-18T22:58:14.594Z,6.98
2023-04-18T23:00:44.120Z,6.98
2023-04-18T23:03:12.850Z,6.96
2023-04-18T23:05:41.437Z,6.98
2023-04-18T23:08:09.666Z,6.99
2023-04-18T23:10:37.793Z,6.98
2023-04-18T23:13:05.899Z,6.98
2023-04-18T23:15:34.116Z,6.99
2023-04-18T23:18:04.367Z,6.97
2023-04-18T23:20:32.477Z,6.95
2023-04-18T23:23:00.649Z,6.95
2023-04-18T23:25:29.155Z,6.94
2023-04-18T23:27:57.273Z,7.02
2023-04-18T23:30:26.576Z,6.98
2023-04-18T23:32:55.088Z,6.98
2023-04-18T23:35:24.769Z,6.98
2023-04-18T23:37:52.882Z,6.99
2023-04-18T23:40:21.485Z,6.98
2023-04-18T23:42:49.957Z,6.96
2023-04-18T23:45:18.223Z,6.99
2023-04-18T23:47:46.372Z,6.97
2023-04-18T23:50:14.561Z,6.96
2023-04-18T23:52:44.007Z,6.97
2023-04-18T23:55:12.169Z,6.97
2023-04-18T23:57:40.735Z,6.96
